sensor_id;sensor_type;location;lat;lon;timestamp;pressure;altitude;pressure_sealevel;temperature;humidity
12178;BME280;6152;48.728;9.256;2023-02-11T00:01:54;99076.69;;;-2.52;100.00
12178;BME280;6152;48.728;9.256;2023-02-11T00:04:21;99079.13;;;-2.57;100.00
12178;BME280;6152;48.728;9.256;2023-02-11T00:06:47;99079.13;;;-2.59;100.00
12178;BME280;6152;48.728;9.256;2023-02-11T00:09:13;99085.03;;;-2.58;100.00
12178;BME280;6152;48.728;9.256;2023-02-11T00:11:39;99082.47;;;-2.60;100.00
12178;BME280;6152;48.728;9.256;2023-02-11T00:14:06;99079.88;;;-2.63;100.00
12178;BME280;6152;48.728;9.256;2023-02-11T00:16:33;99085.78;;;-2.64;100.00
12178;BME280;6152;48.728;9.256;2023-02-11T00:19:00;99081.50;;;-2.65;100.00
12178;BME280;6152;48.728;9.256;2023-02-11T00:21:27;99078.88;;;-2.68;100.00
12178;BME280;6152;48.728;9.256;2023-02-11T00:23:53;99072.06;;;-2.69;100.00
12178;BME280;6152;48.728;9.256;2023-02-11T00:26:24;99078.06;;;-2.67;100.00
12178;BME280;6152;48.728;9.256;2023-02-11T00:28:52;99081.38;;;-2.71;100.00
12178;BME280;6152;48.728;9.256;2023-02-11T00:31:20;99077.94;;;-2.73;100.00
12178;BME280;6152;48.728;9.256;2023-02-11T00:33:47;99086.41;;;-2.74;100.00
12178;BME280;6152;48.728;9.256;2023-02-11T00:36:23;99081.28;;;-2.74;100.00
12178;BME280;6152;48.728;9.256;2023-02-11T00:38:51;99080.47;;;-2.73;100.00
12178;BME280;6152;48.728;9.256;2023-02-11T00:41:17;99077.94;;;-2.73;100.00
12178;BME280;6152;48.728;9.256;2023-02-11T00:43:44;99064.28;;;-2.75;100.00
12178;BME280;6152;48.728;9.256;2023-02-11T00:46:11;99066.00;;;-2.74;100.00
12178;BME280;6152;48.728;9.256;2023-02-11T00:48:37;99059.19;;;-2.75;100.00
12178;BME280;6152;48.728;9.256;2023-02-11T00:51:03;99060.91;;;-2.74;100.00
12178;BME280;6152;48.728;9.256;2023-02-11T00:53:30;99054.91;;;-2.76;100.00
12178;BME280;6152;48.728;9.256;2023-02-11T00:55:56;99063.41;;;-2.77;100.00
12178;BME280;6152;48.728;9.256;2023-02-11T00:58:23;99053.16;;;-2.78;100.00
12178;BME280;6152;48.728;9.256;2023-02-11T01:00:49;99065.81;;;-2.83;100.00
12178;BME280;6152;48.728;9.256;2023-02-11T01:03:15;99067.44;;;-2.85;100.00
12178;BME280;6152;48.728;9.256;2023-02-11T01:05:41;99054.59;;;-2.89;100.00
12178;BME280;6152;48.728;9.256;2023-02-11T01:08:07;99063.03;;;-2.92;100.00
12178;BME280;6152;48.728;9.256;2023-02-11T01:10:33;99059.66;;;-2.91;100.00
12178;BME280;6152;48.728;9.256;2023-02-11T01:13:00;99057.06;;;-2.94;100.00
12178;BME280;6152;48.728;9.256;2023-02-11T01:15:26;99047.78;;;-2.90;100.00
12178;BME280;6152;48.728;9.256;2023-02-11T01:17:53;99050.28;;;-2.92;100.00
12178;BME280;6152;48.728;9.256;2023-02-11T01:20:22;99047.72;;;-2.93;100.00
12178;BME280;6152;48.728;9.256;2023-02-11T01:22:49;99040.84;;;-2.97;100.00
12178;BME280;6152;48.728;9.256;2023-02-11T01:25:15;99037.38;;;-2.99;100.00
12178;BME280;6152;48.728;9.256;2023-02-11T01:27:41;99027.97;;;-3.02;100.00
12178;BME280;6152;48.728;9.256;2023-02-11T01:30:09;99022.88;;;-3.02;100.00
12178;BME280;6152;48.728;9.256;2023-02-11T01:32:35;99026.25;;;-3.03;100.00
12178;BME280;6152;48.728;9.256;2023-02-11T01:35:02;99020.22;;;-3.08;100.00
12178;BME280;6152;48.728;9.256;2023-02-11T01:37:28;99015.94;;;-3.09;100.00
12178;BME280;6152;48.728;9.256;2023-02-11T01:39:57;99026.94;;;-3.10;100.00
12178;BME280;6152;48.728;9.256;2023-02-11T01:42:24;99015.78;;;-3.15;100.00
12178;BME280;6152;48.728;9.256;2023-02-11T01:44:52;99023.38;;;-3.18;100.00
12178;BME280;6152;48.728;9.256;2023-02-11T01:47:20;99019.00;;;-3.22;100.00
12178;BME280;6152;48.728;9.256;2023-02-11T01:49:56;99027.47;;;-3.23;100.00
12178;BME280;6152;48.728;9.256;2023-02-11T01:52:30;99019.00;;;-3.22;100.00
12178;BME280;6152;48.728;9.256;2023-02-11T01:54:59;99025.91;;;-3.18;100.00
12178;BME280;6152;48.728;9.256;2023-02-11T01:57:50;99016.47;;;-3.22;100.00
12178;BME280;6152;48.728;9.256;2023-02-11T02:08:34;99010.25;;;-3.33;100.00
12178;BME280;6152;48.728;9.256;2023-02-11T02:11:03;99000.00;;;-3.36;100.00
12178;BME280;6152;48.728;9.256;2023-02-11T02:13:31;99001.66;;;-3.38;100.00
12178;BME280;6152;48.728;9.256;2023-02-11T02:16:04;99002.50;;;-3.38;100.00
12178;BME280;6152;48.728;9.256;2023-02-11T02:32:25;98993.19;;;-3.37;100.00
12178;BME280;6152;48.728;9.256;2023-02-11T02:35:18;98986.53;;;-3.32;100.00
12178;BME280;6152;48.728;9.256;2023-02-11T02:38:02;98981.44;;;-3.32;100.00
12178;BME280;6152;48.728;9.256;2023-02-11T02:40:48;98974.69;;;-3.30;100.00
12178;BME280;6152;48.728;9.256;2023-02-11T02:43:16;98974.75;;;-3.27;100.00
12178;BME280;6152;48.728;9.256;2023-02-11T02:45:43;98978.22;;;-3.25;100.00
12178;BME280;6152;48.728;9.256;2023-02-11T02:50:50;98972.38;;;-3.21;100.00
12178;BME280;6152;48.728;9.256;2023-02-11T02:56:24;98964.75;;;-3.21;100.00
12178;BME280;6152;48.728;9.256;2023-02-11T03:04:35;98956.25;;;-3.20;100.00
12178;BME280;6152;48.728;9.256;2023-02-11T03:07:24;98952.91;;;-3.19;100.00
12178;BME280;6152;48.728;9.256;2023-02-11T03:10:20;98952.03;;;-3.20;100.00
12178;BME280;6152;48.728;9.256;2023-02-11T03:12:49;98959.72;;;-3.18;100.00
12178;BME280;6152;48.728;9.256;2023-02-11T03:15:17;98949.53;;;-3.18;100.00
12178;BME280;6152;48.728;9.256;2023-02-11T03:17:47;98942.72;;;-3.19;100.00
12178;BME280;6152;48.728;9.256;2023-02-11T03:20:16;98950.41;;;-3.18;100.00
12178;BME280;6152;48.728;9.256;2023-02-11T03:22:54;98947.88;;;-3.16;100.00
12178;BME280;6152;48.728;9.256;2023-02-11T03:25:27;98952.09;;;-3.17;100.00
12178;BME280;6152;48.728;9.256;2023-02-11T03:34:01;98953.09;;;-3.10;100.00
12178;BME280;6152;48.728;9.256;2023-02-11T03:36:46;98946.31;;;-3.11;100.00
12178;BME280;6152;48.728;9.256;2023-02-11T03:39:21;98942.84;;;-3.13;100.00
12178;BME280;6152;48.728;9.256;2023-02-11T03:41:50;98944.56;;;-3.12;100.00
12178;BME280;6152;48.728;9.256;2023-02-11T03:44:20;98943.75;;;-3.11;100.00
12178;BME280;6152;48.728;9.256;2023-02-11T03:46:51;98951.47;;;-3.08;100.00
12178;BME280;6152;48.728;9.256;2023-02-11T03:49:20;98957.47;;;-3.04;100.00
12178;BME280;6152;48.728;9.256;2023-02-11T03:51:50;98941.41;;;-3.02;100.00
12178;BME280;6152;48.728;9.256;2023-02-11T03:54:23;98956.81;;;-2.96;100.00
12178;BME280;6152;48.728;9.256;2023-02-11T03:56:54;98951.72;;;-2.96;100.00
12178;BME280;6152;48.728;9.256;2023-02-11T03:59:21;98950.97;;;-2.92;100.00
12178;BME280;6152;48.728;9.256;2023-02-11T04:01:47;98954.41;;;-2.90;100.00
12178;BME280;6152;48.728;9.256;2023-02-11T04:04:14;98951.09;;;-2.86;100.00
12178;BME280;6152;48.728;9.256;2023-02-11T04:06:40;98942.69;;;-2.83;100.00
12178;BME280;6152;48.728;9.256;2023-02-11T04:09:06;98949.34;;;-2.88;100.00
12178;BME280;6152;48.728;9.256;2023-02-11T04:11:32;98948.41;;;-2.92;100.00
12178;BME280;6152;48.728;9.256;2023-02-11T04:13:58;98955.94;;;-2.96;100.00
12178;BME280;6152;48.728;9.256;2023-02-11T04:16:24;98961.91;;;-2.96;100.00
12178;BME280;6152;48.728;9.256;2023-02-11T04:18:50;98963.63;;;-2.95;100.00
12178;BME280;6152;48.728;9.256;2023-02-11T04:21:17;98972.25;;;-2.90;100.00
12178;BME280;6152;48.728;9.256;2023-02-11T04:23:43;98980.84;;;-2.85;100.00
12178;BME280;6152;48.728;9.256;2023-02-11T04:26:09;98989.28;;;-2.86;100.00
12178;BME280;6152;48.728;9.256;2023-02-11T04:28:35;98992.75;;;-2.84;100.00
12178;BME280;6152;48.728;9.256;2023-02-11T04:31:01;98980.94;;;-2.80;100.00
12178;BME280;6152;48.728;9.256;2023-02-11T04:33:27;98986.13;;;-2.76;100.00
12178;BME280;6152;48.728;9.256;2023-02-11T04:35:54;98979.25;;;-2.80;100.00
12178;BME280;6152;48.728;9.256;2023-02-11T04:38:20;98978.47;;;-2.77;100.00
12178;BME280;6152;48.728;9.256;2023-02-11T04:40:49;98974.41;;;-2.69;100.00
12178;BME280;6152;48.728;9.256;2023-02-11T04:43:15;98978.81;;;-2.62;100.00
12178;BME280;6152;48.728;9.256;2023-02-11T04:45:41;98968.78;;;-2.53;100.00
12178;BME280;6152;48.728;9.256;2023-02-11T04:48:07;98974.00;;;-2.47;100.00
12178;BME280;6152;48.728;9.256;2023-02-11T04:50:34;98971.56;;;-2.42;100.00
12178;BME280;6152;48.728;9.256;2023-02-11T04:53:00;98975.84;;;-2.41;100.00
12178;BME280;6152;48.728;9.256;2023-02-11T04:55:26;98971.69;;;-2.36;100.00
12178;BME280;6152;48.728;9.256;2023-02-11T04:57:52;98964.16;;;-2.30;100.00
12178;BME280;6152;48.728;9.256;2023-02-11T05:00:18;98965.00;;;-2.31;100.00
12178;BME280;6152;48.728;9.256;2023-02-11T05:02:44;98970.22;;;-2.25;100.00
12178;BME280;6152;48.728;9.256;2023-02-11T05:05:10;98961.53;;;-2.33;100.00
12178;BME280;6152;48.728;9.256;2023-02-11T05:07:36;98956.50;;;-2.30;100.00
12178;BME280;6152;48.728;9.256;2023-02-11T05:10:03;98954.66;;;-2.37;100.00
12178;BME280;6152;48.728;9.256;2023-02-11T05:12:29;98958.00;;;-2.41;100.00
12178;BME280;6152;48.728;9.256;2023-02-11T05:14:55;98958.06;;;-2.38;100.00
12178;BME280;6152;48.728;9.256;2023-02-11T05:17:22;98953.94;;;-2.32;100.00
12178;BME280;6152;48.728;9.256;2023-02-11T05:19:48;98927.53;;;-2.35;100.00
12178;BME280;6152;48.728;9.256;2023-02-11T05:22:14;98931.72;;;-2.37;100.00
12178;BME280;6152;48.728;9.256;2023-02-11T05:24:40;98922.31;;;-2.41;100.00
12178;BME280;6152;48.728;9.256;2023-02-11T05:27:06;98914.47;;;-2.52;100.00
12178;BME280;6152;48.728;9.256;2023-02-11T05:29:32;98910.13;;;-2.55;100.00
12178;BME280;6152;48.728;9.256;2023-02-11T05:31:59;98905.94;;;-2.52;100.00
12178;BME280;6152;48.728;9.256;2023-02-11T05:34:25;98898.25;;;-2.56;100.00
12178;BME280;6152;48.728;9.256;2023-02-11T05:36:51;98896.63;;;-2.52;100.00
12178;BME280;6152;48.728;9.256;2023-02-11T05:39:17;98896.56;;;-2.53;100.00
12178;BME280;6152;48.728;9.256;2023-02-11T05:41:44;98908.50;;;-2.52;100.00
12178;BME280;6152;48.728;9.256;2023-02-11T05:44:10;98911.03;;;-2.52;100.00
12178;BME280;6152;48.728;9.256;2023-02-11T05:46:36;98888.13;;;-2.51;100.00
12178;BME280;6152;48.728;9.256;2023-02-11T05:49:02;98902.63;;;-2.48;100.00
12178;BME280;6152;48.728;9.256;2023-02-11T05:51:29;98903.50;;;-2.46;100.00
12178;BME280;6152;48.728;9.256;2023-02-11T05:53:55;98914.66;;;-2.41;100.00
12178;BME280;6152;48.728;9.256;2023-02-11T05:56:21;98910.56;;;-2.33;100.00
12178;BME280;6152;48.728;9.256;2023-02-11T05:58:47;98907.22;;;-2.29;100.00
12178;BME280;6152;48.728;9.256;2023-02-11T06:01:13;98905.66;;;-2.24;100.00
12178;BME280;6152;48.728;9.256;2023-02-11T06:03:39;98895.56;;;-2.18;100.00
12178;BME280;6152;48.728;9.256;2023-02-11T06:06:11;98898.97;;;-2.16;100.00
12178;BME280;6152;48.728;9.256;2023-02-11T06:08:38;98896.53;;;-2.12;100.00
12178;BME280;6152;48.728;9.256;2023-02-11T06:11:04;98896.53;;;-2.10;100.00
12178;BME280;6152;48.728;9.256;2023-02-11T06:13:30;98902.59;;;-2.05;100.00
12178;BME280;6152;48.728;9.256;2023-02-11T06:16:01;98915.38;;;-2.02;100.00
12178;BME280;6152;48.728;9.256;2023-02-11T06:18:28;98919.69;;;-1.99;100.00
12178;BME280;6152;48.728;9.256;2023-02-11T06:20:54;98923.19;;;-1.93;100.00
12178;BME280;6152;48.728;9.256;2023-02-11T06:23:21;98919.81;;;-1.93;100.00
12178;BME280;6152;48.728;9.256;2023-02-11T06:25:47;98923.19;;;-1.93;100.00
12178;BME280;6152;48.728;9.256;2023-02-11T06:28:13;98925.78;;;-1.91;100.00
12178;BME280;6152;48.728;9.256;2023-02-11T06:30:39;98926.66;;;-1.91;100.00
12178;BME280;6152;48.728;9.256;2023-02-11T06:33:06;98919.88;;;-1.89;100.00
12178;BME280;6152;48.728;9.256;2023-02-11T06:35:32;98925.03;;;-1.86;100.00
12178;BME280;6152;48.728;9.256;2023-02-11T06:38:00;98917.31;;;-1.89;100.00
12178;BME280;6152;48.728;9.256;2023-02-11T06:40:26;98924.22;;;-1.83;100.00
12178;BME280;6152;48.728;9.256;2023-02-11T06:42:52;98920.09;;;-1.77;100.00
12178;BME280;6152;48.728;9.256;2023-02-11T06:45:18;98927.78;;;-1.74;100.00
12178;BME280;6152;48.728;9.256;2023-02-11T06:47:45;98930.44;;;-1.68;100.00
12178;BME280;6152;48.728;9.256;2023-02-11T06:50:13;98924.47;;;-1.68;100.00
12178;BME280;6152;48.728;9.256;2023-02-11T06:52:40;98932.22;;;-1.64;100.00
12178;BME280;6152;48.728;9.256;2023-02-11T06:55:06;98942.53;;;-1.58;100.00
12178;BME280;6152;48.728;9.256;2023-02-11T06:57:32;98937.47;;;-1.55;100.00
12178;BME280;6152;48.728;9.256;2023-02-11T06:59:58;98937.53;;;-1.50;100.00
12178;BME280;6152;48.728;9.256;2023-02-11T07:02:24;98941.00;;;-1.46;100.00
12178;BME280;6152;48.728;9.256;2023-02-11T07:04:50;98936.03;;;-1.37;100.00
12178;BME280;6152;48.728;9.256;2023-02-11T07:07:16;98937.81;;;-1.33;100.00
12178;BME280;6152;48.728;9.256;2023-02-11T07:09:42;98937.91;;;-1.27;100.00
12178;BME280;6152;48.728;9.256;2023-02-11T07:12:09;98945.63;;;-1.24;100.00
12178;BME280;6152;48.728;9.256;2023-02-11T07:14:35;98949.94;;;-1.20;100.00
12178;BME280;6152;48.728;9.256;2023-02-11T07:17:01;98938.97;;;-1.13;100.00
12178;BME280;6152;48.728;9.256;2023-02-11T07:19:29;98937.22;;;-1.16;100.00
12178;BME280;6152;48.728;9.256;2023-02-11T07:21:55;98941.44;;;-1.19;100.00
12178;BME280;6152;48.728;9.256;2023-02-11T07:24:21;98941.53;;;-1.13;100.00
12178;BME280;6152;48.728;9.256;2023-02-11T07:26:48;98933.94;;;-1.09;100.00
12178;BME280;6152;48.728;9.256;2023-02-11T07:29:14;98934.78;;;-1.08;100.00
12178;BME280;6152;48.728;9.256;2023-02-11T07:31:40;98933.13;;;-1.06;100.00
12178;BME280;6152;48.728;9.256;2023-02-11T07:34:06;98927.22;;;-1.02;100.00
12178;BME280;6152;48.728;9.256;2023-02-11T07:36:32;98926.34;;;-1.04;100.00
12178;BME280;6152;48.728;9.256;2023-02-11T07:38:58;98922.94;;;-1.03;100.00
12178;BME280;6152;48.728;9.256;2023-02-11T07:41:26;98939.16;;;-0.99;100.00
12178;BME280;6152;48.728;9.256;2023-02-11T07:43:52;98936.69;;;-0.95;100.00
12178;BME280;6152;48.728;9.256;2023-02-11T07:46:22;98946.13;;;-0.89;100.00
12178;BME280;6152;48.728;9.256;2023-02-11T07:48:48;98940.44;;;-0.69;100.00
12178;BME280;6152;48.728;9.256;2023-02-11T07:51:20;98938.06;;;-0.55;100.00
12178;BME280;6152;48.728;9.256;2023-02-11T07:53:46;98942.53;;;-0.37;100.00
12178;BME280;6152;48.728;9.256;2023-02-11T07:56:14;98934.13;;;-0.27;100.00
12178;BME280;6152;48.728;9.256;2023-02-11T07:58:41;98930.84;;;-0.17;100.00
12178;BME280;6152;48.728;9.256;2023-02-11T08:01:12;98934.31;;;-0.12;100.00
12178;BME280;6152;48.728;9.256;2023-02-11T08:03:40;98924.91;;;-0.13;100.00
12178;BME280;6152;48.728;9.256;2023-02-11T08:06:15;98922.34;;;-0.15;100.00
12178;BME280;6152;48.728;9.256;2023-02-11T08:08:41;98924.03;;;-0.18;100.00
12178;BME280;6152;48.728;9.256;2023-02-11T08:11:21;98932.59;;;-0.13;100.00
12178;BME280;6152;48.728;9.256;2023-02-11T08:13:48;98928.38;;;-0.11;100.00
12178;BME280;6152;48.728;9.256;2023-02-11T08:16:30;98924.09;;;-0.09;100.00
12178;BME280;6152;48.728;9.256;2023-02-11T08:18:58;98921.72;;;0.08;100.00
12178;BME280;6152;48.728;9.256;2023-02-11T08:21:25;98923.59;;;0.24;100.00
12178;BME280;6152;48.728;9.256;2023-02-11T08:23:51;98919.47;;;0.38;100.00
12178;BME280;6152;48.728;9.256;2023-02-11T08:26:29;98925.56;;;0.57;100.00
12178;BME280;6152;48.728;9.256;2023-02-11T08:28:57;98926.59;;;0.80;100.00
12178;BME280;6152;48.728;9.256;2023-02-11T08:31:25;98931.81;;;0.93;100.00
12178;BME280;6152;48.728;9.256;2023-02-11T08:33:52;98931.06;;;1.08;100.00
12178;BME280;6152;48.728;9.256;2023-02-11T08:36:28;98944.03;;;1.35;100.00
12178;BME280;6152;48.728;9.256;2023-02-11T08:38:56;98944.13;;;1.47;100.00
12178;BME280;6152;48.728;9.256;2023-02-11T08:41:22;98939.81;;;1.40;100.00
12178;BME280;6152;48.728;9.256;2023-02-11T08:43:48;98947.56;;;1.48;100.00
12178;BME280;6152;48.728;9.256;2023-02-11T08:46:16;98940.69;;;1.50;100.00
12178;BME280;6152;48.728;9.256;2023-02-11T08:48:44;98938.16;;;1.59;100.00
12178;BME280;6152;48.728;9.256;2023-02-11T08:51:16;98932.25;;;1.77;100.00
12178;BME280;6152;48.728;9.256;2023-02-11T08:53:43;98939.19;;;2.05;100.00
12178;BME280;6152;48.728;9.256;2023-02-11T08:56:10;98937.50;;;2.31;100.00
12178;BME280;6152;48.728;9.256;2023-02-11T08:58:36;98939.25;;;2.44;100.00
12178;BME280;6152;48.728;9.256;2023-02-11T09:01:12;98934.13;;;2.63;100.00
12178;BME280;6152;48.728;9.256;2023-02-11T09:03:38;98930.69;;;2.64;100.00
12178;BME280;6152;48.728;9.256;2023-02-11T09:06:07;98933.28;;;2.71;100.00
12178;BME280;6152;48.728;9.256;2023-02-11T09:08:35;98929.84;;;2.96;100.00
12178;BME280;6152;48.728;9.256;2023-02-11T09:11:02;98928.91;;;3.14;100.00
12178;BME280;6152;48.728;9.256;2023-02-11T09:13:28;98932.31;;;3.31;100.00
12178;BME280;6152;48.728;9.256;2023-02-11T09:15:55;98928.94;;;3.17;100.00
12178;BME280;6152;48.728;9.256;2023-02-11T09:18:21;98939.25;;;2.99;100.00
12178;BME280;6152;48.728;9.256;2023-02-11T09:20:47;98937.50;;;3.16;100.00
12178;BME280;6152;48.728;9.256;2023-02-11T09:23:13;98940.84;;;3.48;100.00
12178;BME280;6152;48.728;9.256;2023-02-11T09:25:40;98926.97;;;3.89;100.00
12178;BME280;6152;48.728;9.256;2023-02-11T09:28:07;98916.44;;;4.21;100.00
12178;BME280;6152;48.728;9.256;2023-02-11T09:30:35;98925.03;;;4.21;100.00
12178;BME280;6152;48.728;9.256;2023-02-11T09:33:02;98915.50;;;4.35;100.00
12178;BME280;6152;48.728;9.256;2023-02-11T09:35:28;98915.25;;;4.72;100.00
12178;BME280;6152;48.728;9.256;2023-02-11T09:37:54;98912.19;;;5.20;100.00
12178;BME280;6152;48.728;9.256;2023-02-11T09:40:21;98912.41;;;4.99;97.46
12178;BME280;6152;48.728;9.256;2023-02-11T09:42:50;98908.16;;;5.70;97.95
12178;BME280;6152;48.728;9.256;2023-02-11T09:45:25;98905.47;;;6.41;89.46
12178;BME280;6152;48.728;9.256;2023-02-11T09:47:59;98902.06;;;6.93;85.73
12178;BME280;6152;48.728;9.256;2023-02-11T09:50:34;98903.16;;;8.48;73.11
12178;BME280;6152;48.728;9.256;2023-02-11T09:53:23;98908.31;;;9.82;60.92
12178;BME280;6152;48.728;9.256;2023-02-11T09:55:55;98900.69;;;10.89;53.84
12178;BME280;6152;48.728;9.256;2023-02-11T09:58:27;98897.56;;;12.45;50.61
12178;BME280;6152;48.728;9.256;2023-02-11T10:03:59;98894.22;;;14.78;43.57
12178;BME280;6152;48.728;9.256;2023-02-11T10:12:13;98902.28;;;16.40;35.96
12178;BME280;6152;48.728;9.256;2023-02-11T10:17:28;98899.66;;;19.12;31.74
12178;BME280;6152;48.728;9.256;2023-02-11T10:22:47;98892.75;;;19.87;30.62
12178;BME280;6152;48.728;9.256;2023-02-11T10:25:37;98887.13;;;21.24;29.63
12178;BME280;6152;48.728;9.256;2023-02-11T10:28:19;98883.69;;;22.03;28.44
12178;BME280;6152;48.728;9.256;2023-02-11T10:30:51;98883.72;;;21.57;28.25
12178;BME280;6152;48.728;9.256;2023-02-11T10:35:53;98880.22;;;23.52;26.15
12178;BME280;6152;48.728;9.256;2023-02-11T10:38:19;98884.53;;;24.04;25.42
12178;BME280;6152;48.728;9.256;2023-02-11T10:40:45;98877.59;;;24.52;24.71
12178;BME280;6152;48.728;9.256;2023-02-11T10:43:14;98871.22;;;25.22;24.48
12178;BME280;6152;48.728;9.256;2023-02-11T10:45:52;98867.97;;;24.21;23.55
12178;BME280;6152;48.728;9.256;2023-02-11T10:48:38;98864.06;;;24.84;23.06
12178;BME280;6152;48.728;9.256;2023-02-11T10:53:48;98853.25;;;26.72;22.23
12178;BME280;6152;48.728;9.256;2023-02-11T10:56:26;98843.69;;;26.24;22.00
12178;BME280;6152;48.728;9.256;2023-02-11T11:01:52;98832.06;;;25.03;22.66
12178;BME280;6152;48.728;9.256;2023-02-11T11:04:38;98832.78;;;26.08;21.85
12178;BME280;6152;48.728;9.256;2023-02-11T11:12:37;98813.44;;;26.06;21.67
12178;BME280;6152;48.728;9.256;2023-02-11T11:15:24;98813.34;;;25.51;22.36
12178;BME280;6152;48.728;9.256;2023-02-11T11:18:11;98815.63;;;25.83;21.91
12178;BME280;6152;48.728;9.256;2023-02-11T11:20:38;98814.53;;;24.43;23.14
12178;BME280;6152;48.728;9.256;2023-02-11T11:23:14;98819.03;;;22.26;24.86
12178;BME280;6152;48.728;9.256;2023-02-11T11:25:44;98812.66;;;23.54;24.21
12178;BME280;6152;48.728;9.256;2023-02-11T11:28:22;98818.34;;;22.88;24.39
12178;BME280;6152;48.728;9.256;2023-02-11T11:30:52;98808.59;;;23.90;23.84
12178;BME280;6152;48.728;9.256;2023-02-11T11:33:22;98806.16;;;24.96;22.71
12178;BME280;6152;48.728;9.256;2023-02-11T11:38:28;98807.75;;;26.99;21.24
12178;BME280;6152;48.728;9.256;2023-02-11T11:46:33;98802.81;;;28.97;19.37
12178;BME280;6152;48.728;9.256;2023-02-11T11:51:53;98795.69;;;26.95;21.20
12178;BME280;6152;48.728;9.256;2023-02-11T11:54:21;98792.41;;;27.44;19.99
12178;BME280;6152;48.728;9.256;2023-02-11T11:56:58;98796.28;;;27.50;19.83
12178;BME280;6152;48.728;9.256;2023-02-11T11:59:26;98790.53;;;28.04;20.14
12178;BME280;6152;48.728;9.256;2023-02-11T12:05:08;98792.84;;;27.99;19.50
12178;BME280;6152;48.728;9.256;2023-02-11T12:10:36;98784.09;;;27.30;19.84
12178;BME280;6152;48.728;9.256;2023-02-11T12:13:20;98787.50;;;28.49;19.42
12178;BME280;6152;48.728;9.256;2023-02-11T12:16:19;98795.84;;;28.30;19.17
12178;BME280;6152;48.728;9.256;2023-02-11T12:32:41;98793.59;;;22.55;24.25
12178;BME280;6152;48.728;9.256;2023-02-11T12:38:04;98802.16;;;20.34;26.86
12178;BME280;6152;48.728;9.256;2023-02-11T12:40:50;98800.81;;;18.51;29.16
12178;BME280;6152;48.728;9.256;2023-02-11T12:43:22;98807.28;;;17.50;30.53
12178;BME280;6152;48.728;9.256;2023-02-11T12:46:11;98806.22;;;17.10;31.35
12178;BME280;6152;48.728;9.256;2023-02-11T12:57:15;98806.78;;;14.79;35.54
12178;BME280;6152;48.728;9.256;2023-02-11T12:59:56;98798.19;;;14.05;37.05
12178;BME280;6152;48.728;9.256;2023-02-11T13:02:43;98806.41;;;13.79;38.04
12178;BME280;6152;48.728;9.256;2023-02-11T13:05:39;98794.69;;;13.69;38.83
12178;BME280;6152;48.728;9.256;2023-02-11T13:08:14;98791.00;;;12.54;41.36
12178;BME280;6152;48.728;9.256;2023-02-11T13:10:45;98785.94;;;12.50;42.17
12178;BME280;6152;48.728;9.256;2023-02-11T13:13:24;98782.91;;;12.39;42.52
12178;BME280;6152;48.728;9.256;2023-02-11T13:15:58;98777.66;;;12.19;43.79
12178;BME280;6152;48.728;9.256;2023-02-11T13:18:40;98786.53;;;12.14;44.51
12178;BME280;6152;48.728;9.256;2023-02-11T13:23:51;98779.13;;;12.04;46.27
12178;BME280;6152;48.728;9.256;2023-02-11T13:29:27;98770.03;;;11.92;47.73
12178;BME280;6152;48.728;9.256;2023-02-11T13:32:14;98770.31;;;12.28;47.01
12178;BME280;6152;48.728;9.256;2023-02-11T13:37:33;98770.50;;;12.24;47.94
12178;BME280;6152;48.728;9.256;2023-02-11T13:42:32;98772.84;;;12.72;47.07
12178;BME280;6152;48.728;9.256;2023-02-11T13:44:59;98767.09;;;12.63;47.19
12178;BME280;6152;48.728;9.256;2023-02-11T13:47:29;98768.50;;;12.30;48.00
12178;BME280;6152;48.728;9.256;2023-02-11T13:49:56;98770.00;;;12.14;48.30
12178;BME280;6152;48.728;9.256;2023-02-11T13:54:53;98786.66;;;11.66;49.76
12178;BME280;6152;48.728;9.256;2023-02-11T13:59:56;98777.69;;;10.79;53.94
12178;BME280;6152;48.728;9.256;2023-02-11T14:02:37;98772.69;;;10.48;57.52
12178;BME280;6152;48.728;9.256;2023-02-11T14:16:15;98773.97;;;9.53;72.91
12178;BME280;6152;48.728;9.256;2023-02-11T14:21:15;98774.16;;;9.47;75.10
12178;BME280;6152;48.728;9.256;2023-02-11T14:23:42;98779.59;;;9.40;75.90
12178;BME280;6152;48.728;9.256;2023-02-11T14:29:23;98789.53;;;9.24;80.05
12178;BME280;6152;48.728;9.256;2023-02-11T14:35:00;98774.81;;;8.94;83.82
12178;BME280;6152;48.728;9.256;2023-02-11T14:42:35;98772.09;;;8.68;85.42
12178;BME280;6152;48.728;9.256;2023-02-11T14:45:08;98784.91;;;8.74;87.06
12178;BME280;6152;48.728;9.256;2023-02-11T14:47:57;98777.84;;;8.79;87.25
12178;BME280;6152;48.728;9.256;2023-02-11T14:50:32;98782.28;;;8.75;88.44
12178;BME280;6152;48.728;9.256;2023-02-11T14:53:02;98786.03;;;8.63;90.60
12178;BME280;6152;48.728;9.256;2023-02-11T14:55:36;98787.75;;;8.65;91.65
12178;BME280;6152;48.728;9.256;2023-02-11T15:01:02;98792.31;;;8.55;91.88
12178;BME280;6152;48.728;9.256;2023-02-11T15:03:42;98792.59;;;8.44;94.11
12178;BME280;6152;48.728;9.256;2023-02-11T15:06:19;98794.34;;;8.42;94.03
12178;BME280;6152;48.728;9.256;2023-02-11T15:11:38;98799.78;;;8.33;94.50
12178;BME280;6152;48.728;9.256;2023-02-11T15:14:22;98802.19;;;8.41;94.18
12178;BME280;6152;48.728;9.256;2023-02-11T15:16:50;98794.72;;;8.27;94.11
12178;BME280;6152;48.728;9.256;2023-02-11T15:19:27;98794.03;;;8.19;94.44
12178;BME280;6152;48.728;9.256;2023-02-11T15:21:54;98791.59;;;8.13;94.96
12178;BME280;6152;48.728;9.256;2023-02-11T15:24:28;98795.81;;;8.17;93.84
12178;BME280;6152;48.728;9.256;2023-02-11T15:27:15;98795.00;;;8.15;93.07
12178;BME280;6152;48.728;9.256;2023-02-11T15:29:46;98791.81;;;8.04;93.85
12178;BME280;6152;48.728;9.256;2023-02-11T15:32:22;98798.56;;;8.11;94.32
12178;BME280;6152;48.728;9.256;2023-02-11T15:34:51;98793.28;;;8.14;93.67
12178;BME280;6152;48.728;9.256;2023-02-11T15:37:25;98802.22;;;8.02;94.92
12178;BME280;6152;48.728;9.256;2023-02-11T15:39:53;98807.72;;;7.89;95.54
12178;BME280;6152;48.728;9.256;2023-02-11T15:42:27;98812.16;;;7.84;96.02
12178;BME280;6152;48.728;9.256;2023-02-11T15:47:52;98811.94;;;7.54;99.47
12178;BME280;6152;48.728;9.256;2023-02-11T15:50:21;98814.69;;;7.47;100.00
12178;BME280;6152;48.728;9.256;2023-02-11T15:52:48;98820.03;;;7.38;100.00
12178;BME280;6152;48.728;9.256;2023-02-11T15:55:16;98817.69;;;7.27;100.00
12178;BME280;6152;48.728;9.256;2023-02-11T15:57:52;98821.31;;;7.17;100.00
12178;BME280;6152;48.728;9.256;2023-02-11T16:00:21;98824.38;;;6.94;100.00